Time;durP1;ratioP1;P1;durP2;ratioP2;P2;SDS_P1;SDS_P2;PMS_P1;PMS_P2;Temp;Humidity;BMP_temperature;BMP_pressure;BME280_temperature;BME280_humidity;BME280_pressure;Samples;Min_cycle;Max_cycle;Signal;HPM_P1;HPM_P2
2024/04/07 00:02:16;;;;;;;2.33;1.25;;;;;;;15.65;47.23;94914.97;5034728;28;20047;-78
2024/04/07 00:04:42;;;;;;;2.42;1.10;;;;;;;15.65;46.04;94914.97;5049115;28;20097;-78
2024/04/07 00:07:07;;;;;;;3.22;1.00;;;;;;;15.70;44.72;94911.13;5033496;28;20086;-78
2024/04/07 00:09:35;;;;;;;3.05;0.95;;;;;;;15.72;44.04;94914.41;5051449;28;20113;-78
2024/04/07 00:12:01;;;;;;;2.53;1.10;;;;;;;15.80;43.91;94904.78;5034839;28;20059;-78
2024/04/07 00:14:27;;;;;;;2.47;0.98;;;;;;;16.04;43.59;94924.19;5034562;28;20429;-78
2024/04/07 00:16:52;;;;;;;2.08;1.00;;;;;;;16.22;43.59;94921.50;5052586;28;20257;-78
2024/04/07 00:19:18;;;;;;;1.73;1.05;;;;;;;16.18;43.41;94920.16;5071120;28;20082;-78
2024/04/07 00:21:44;;;;;;;4.07;1.30;;;;;;;16.03;42.93;94928.63;5036155;28;20070;-78
2024/04/07 00:24:09;;;;;;;2.42;1.10;;;;;;;16.27;43.27;94927.91;5053593;28;20505;-78
2024/04/07 00:26:35;;;;;;;2.22;1.05;;;;;;;16.20;42.91;94919.00;5016192;28;20025;-78
2024/04/07 00:29:00;;;;;;;2.85;1.23;;;;;;;16.32;42.82;94927.41;4999016;28;20037;-78
2024/04/07 00:31:25;;;;;;;4.35;1.10;;;;;;;16.22;43.05;94931.97;5033029;28;20083;-78
2024/04/07 00:33:51;;;;;;;3.75;1.40;;;;;;;16.11;43.32;94921.78;5036381;28;20466;-78
2024/04/07 00:36:16;;;;;;;2.75;1.40;;;;;;;16.39;43.73;94943.34;5019663;28;20029;-78
2024/04/07 00:38:42;;;;;;;2.88;1.60;;;;;;;16.32;44.21;94932.63;5054077;28;20033;-77
2024/04/07 00:41:07;;;;;;;3.70;2.17;;;;;;;16.37;44.53;94937.41;5035328;28;20033;-78
2024/04/07 00:43:33;;;;;;;2.63;1.35;;;;;;;16.27;44.66;94932.31;5072843;28;20472;-78
2024/04/07 00:45:59;;;;;;;3.22;1.60;;;;;;;16.16;44.87;94927.34;5034487;28;20033;-78
2024/04/07 00:48:25;;;;;;;2.10;1.40;;;;;;;16.20;44.87;94918.19;5019764;28;20506;-78
2024/04/07 00:50:52;;;;;;;4.53;1.70;;;;;;;16.34;44.33;94935.94;5043791;28;20044;-77
2024/04/07 00:53:17;;;;;;;3.40;1.60;;;;;;;16.31;44.40;94925.78;5019266;28;20048;-78
2024/04/07 00:55:43;;;;;;;4.28;1.58;;;;;;;16.14;44.95;94924.06;5019259;28;20498;-78
2024/04/07 00:58:18;;;;;;;5.60;1.33;;;;;;;16.21;44.20;94938.19;5019438;28;20037;-78
2024/04/07 01:00:44;;;;;;;3.45;1.30;;;;;;;16.17;44.98;94939.47;5020454;28;20064;-78
2024/04/07 01:03:10;;;;;;;2.60;1.23;;;;;;;16.17;44.85;94935.06;5052769;28;20037;-78
2024/04/07 01:05:42;;;;;;;3.15;1.38;;;;;;;16.19;44.78;94951.44;5022704;28;20041;-78
2024/04/07 01:08:08;;;;;;;2.20;1.20;;;;;;;16.19;44.68;94938.34;5055598;28;20032;-78
2024/04/07 01:10:34;;;;;;;2.53;1.17;;;;;;;16.05;44.93;94936.34;5038765;28;20454;-77
2024/04/07 01:12:59;;;;;;;2.80;1.30;;;;;;;16.12;45.03;94941.75;5019863;28;20025;-77
2024/04/07 01:15:25;;;;;;;3.17;1.15;;;;;;;16.11;45.37;94945.38;5073303;28;20109;-78
2024/04/07 01:17:51;;;;;;;2.42;1.35;;;;;;;15.97;45.89;94920.56;5055449;28;20029;-77
2024/04/07 01:20:17;;;;;;;2.88;1.58;;;;;;;16.13;46.02;94938.13;5068448;28;20113;-77
2024/04/07 01:22:43;;;;;;;2.78;1.50;;;;;;;16.17;45.85;94916.72;5046998;28;20032;-77
2024/04/07 01:25:08;;;;;;;2.90;1.23;;;;;;;16.19;45.93;94919.19;5038803;28;20021;-77
2024/04/07 01:27:34;;;;;;;3.17;1.45;;;;;;;16.27;46.41;94929.69;5038263;28;20106;-78
2024/04/07 01:30:00;;;;;;;3.67;1.38;;;;;;;16.23;47.31;94923.13;5038159;28;20036;-77
2024/04/07 01:32:25;;;;;;;2.00;1.30;;;;;;;16.19;47.39;94913.94;5017829;28;20474;-78
2024/04/07 01:34:50;;;;;;;5.18;1.40;;;;;;;16.27;47.30;94924.47;5054226;28;20068;-78
2024/04/07 01:37:16;;;;;;;5.10;1.60;;;;;;;16.13;47.11;94907.53;5035226;28;20028;-78
2024/04/07 01:39:41;;;;;;;3.20;1.40;;;;;;;16.22;47.21;94927.53;5035056;28;20033;-78
2024/04/07 01:42:07;;;;;;;3.03;1.40;;;;;;;16.14;46.95;94921.47;5046832;28;20032;-78
2024/04/07 01:44:32;;;;;;;3.40;1.38;;;;;;;16.01;47.40;94924.50;5039168;28;20040;-78
2024/04/07 01:46:58;;;;;;;3.15;1.30;;;;;;;16.04;47.56;94925.00;5018327;28;20029;-78
2024/04/07 01:49:23;;;;;;;3.33;1.38;;;;;;;16.15;48.44;94931.78;5052577;28;20040;-78
2024/04/07 01:51:49;;;;;;;2.83;1.25;;;;;;;16.11;49.13;94924.41;5037673;28;20033;-78
2024/04/07 01:54:15;;;;;;;3.35;1.27;;;;;;;16.01;49.32;94922.69;5030841;28;20028;-78
2024/04/07 01:56:40;;;;;;;3.13;1.40;;;;;;;15.89;50.33;94934.44;5018710;28;20037;-78
2024/04/07 01:59:06;;;;;;;2.95;1.25;;;;;;;15.76;49.57;94931.44;5034575;28;20029;-78
2024/04/07 02:01:32;;;;;;;2.55;1.48;;;;;;;15.86;49.43;94934.75;5018198;28;20036;-78
2024/04/07 02:03:58;;;;;;;3.08;1.50;;;;;;;15.69;49.97;94922.56;5046462;28;20418;-78
2024/04/07 02:06:24;;;;;;;6.45;1.77;;;;;;;15.67;49.81;94927.09;5034386;28;20049;-78
2024/04/07 02:08:49;;;;;;;4.78;1.90;;;;;;;15.67;50.66;94927.09;5011367;28;20414;-78
2024/04/07 02:11:14;;;;;;;4.63;1.95;;;;;;;15.74;50.97;94938.63;5034360;28;20033;-78
2024/04/07 02:13:40;;;;;;;5.10;2.10;;;;;;;15.64;50.48;94930.84;5017893;28;20498;-77
2024/04/07 02:16:06;;;;;;;5.80;2.10;;;;;;;15.77;51.00;94939.16;5017840;28;20036;-78
2024/04/07 02:18:31;;;;;;;5.07;1.90;;;;;;;15.78;50.91;94945.19;5034568;28;20064;-78
2024/04/07 02:20:57;;;;;;;4.13;2.03;;;;;;;15.77;50.75;94949.63;5034428;28;20415;-78
2024/04/07 02:23:22;;;;;;;4.22;2.08;;;;;;;15.85;50.61;94948.81;5018150;28;20391;-77
2024/04/07 02:25:48;;;;;;;5.00;1.92;;;;;;;15.76;50.72;94923.56;5035192;28;20033;-78
2024/04/07 02:28:13;;;;;;;2.67;1.80;;;;;;;15.83;51.02;94953.41;5017345;28;20052;-78
2024/04/07 02:30:40;;;;;;;4.28;1.95;;;;;;;15.83;50.76;94929.84;5034001;28;20040;-78
2024/04/07 02:33:05;;;;;;;4.15;1.90;;;;;;;15.87;50.93;94931.16;5017755;28;20033;-78
2024/04/07 02:35:33;;;;;;;4.47;2.03;;;;;;;15.88;51.04;94950.31;5034835;28;20496;-78
2024/04/07 02:37:59;;;;;;;3.30;2.08;;;;;;;15.97;50.50;94929.25;5037416;28;20394;-77
2024/04/07 02:40:24;;;;;;;4.03;1.98;;;;;;;15.97;50.39;94908.28;5034250;28;20044;-76
2024/04/07 02:42:52;;;;;;;4.65;2.17;;;;;;;16.04;50.47;94930.25;5036786;28;20547;-78
2024/04/07 02:48:04;;;;;;;4.10;2.00;;;;;;;16.03;50.81;94933.03;5040930;28;20105;-78
2024/04/07 02:50:33;;;;;;;5.00;2.45;;;;;;;15.99;50.67;94934.31;5017857;28;20063;-78
2024/04/07 02:52:58;;;;;;;6.72;2.40;;;;;;;15.87;50.81;94925.91;5037337;28;20117;-78
2024/04/07 02:55:24;;;;;;;4.22;2.13;;;;;;;16.06;50.59;94923.06;5036165;28;20066;-78
2024/04/07 02:57:49;;;;;;;4.00;2.22;;;;;;;16.13;50.96;94930.28;5071426;28;20024;-78
2024/04/07 03:00:15;;;;;;;3.50;1.90;;;;;;;16.26;51.99;94938.53;5053459;28;20037;-78
2024/04/07 03:02:44;;;;;;;3.47;1.85;;;;;;;16.14;52.40;94930.13;5035153;28;20035;-78
2024/04/07 03:05:13;;;;;;;3.20;1.98;;;;;;;16.09;52.13;94930.59;5036924;28;20051;-77
2024/04/07 03:07:38;;;;;;;3.55;2.20;;;;;;;16.08;51.75;94936.84;5033341;28;20523;-76
2024/04/07 03:10:06;;;;;;;2.95;2.00;;;;;;;16.17;51.17;94942.09;5033664;28;20037;-76
2024/04/07 03:12:31;;;;;;;4.78;2.70;;;;;;;16.00;51.54;94921.06;5000911;28;20072;-78
2024/04/07 03:14:59;;;;;;;5.40;2.60;;;;;;;16.06;52.81;94937.97;5033503;28;20491;-78
2024/04/07 03:17:25;;;;;;;4.70;2.65;;;;;;;15.98;52.17;94949.22;5044480;28;20033;-78
2024/04/07 03:19:50;;;;;;;6.25;2.50;;;;;;;15.87;53.28;94952.13;5053193;28;20031;-78
2024/04/07 03:22:16;;;;;;;3.72;2.53;;;;;;;15.83;52.77;94935.09;5036522;28;20409;-78
2024/04/07 03:24:41;;;;;;;5.47;2.65;;;;;;;15.92;53.15;94955.09;5020085;28;20459;-78
2024/04/07 03:27:06;;;;;;;3.67;2.22;;;;;;;15.95;53.85;94956.59;5067091;28;20062;-78
2024/04/07 03:29:32;;;;;;;6.38;2.58;;;;;;;15.88;53.98;94951.16;5052819;28;20513;-78
2024/04/07 03:31:58;;;;;;;5.60;2.03;;;;;;;15.78;54.10;94950.44;5053085;28;20029;-78
2024/04/07 03:34:23;;;;;;;4.93;2.42;;;;;;;15.68;54.34;94971.47;5036642;28;20032;-77
2024/04/07 03:36:49;;;;;;;5.40;2.40;;;;;;;15.59;54.25;94960.09;5016177;28;20049;-78
2024/04/07 03:39:14;;;;;;;6.03;2.22;;;;;;;15.57;53.95;94963.84;5033218;28;20230;-78
2024/04/07 03:41:40;;;;;;;5.43;2.28;;;;;;;15.62;54.46;94977.31;5012357;28;20071;-78
2024/04/07 03:44:05;;;;;;;3.65;2.00;;;;;;;15.67;55.15;94982.91;5000310;28;20025;-78
2024/04/07 03:46:31;;;;;;;5.10;2.78;;;;;;;15.63;55.28;94971.94;5032647;28;20111;-78
2024/04/07 03:48:56;;;;;;;2.92;2.00;;;;;;;15.53;55.37;94980.84;5050372;28;20454;-78
2024/04/07 03:51:22;;;;;;;4.47;2.25;;;;;;;15.44;55.23;94982.59;5008982;28;20039;-78
2024/04/07 03:53:48;;;;;;;3.58;2.47;;;;;;;15.34;55.80;94971.38;5036282;28;20121;-79
2024/04/07 03:56:13;;;;;;;3.38;2.05;;;;;;;15.43;55.35;94986.16;5036216;28;20410;-78
2024/04/07 03:58:39;;;;;;;4.30;2.58;;;;;;;15.44;55.90;94979.16;5032797;28;20029;-77
2024/04/07 04:01:04;;;;;;;2.50;1.95;;;;;;;15.45;56.34;94981.63;5032815;28;20029;-79
2024/04/07 04:03:30;;;;;;;3.25;2.22;;;;;;;15.36;56.24;94990.38;5000122;28;20033;-79
2024/04/07 04:05:55;;;;;;;3.65;2.40;;;;;;;15.27;55.91;94976.41;5008024;28;20044;-79
2024/04/07 04:08:21;;;;;;;5.00;2.40;;;;;;;15.31;55.81;94990.03;5041600;28;20085;-79
2024/04/07 04:10:47;;;;;;;2.67;1.98;;;;;;;15.30;56.87;94989.19;5040601;28;20040;-79
2024/04/07 04:13:12;;;;;;;5.18;2.30;;;;;;;15.22;57.12;94980.47;5031521;28;20020;-79
2024/04/07 04:15:38;;;;;;;4.32;2.47;;;;;;;15.18;56.01;94977.31;5052620;28;20430;-82
2024/04/07 04:18:05;;;;;;;7.30;2.60;;;;;;;15.18;56.54;94991.25;5050136;28;20032;-80
2024/04/07 04:20:32;;;;;;;5.70;2.28;;;;;;;15.18;57.47;94995.63;5030628;28;20044;-80
2024/04/07 04:22:57;;;;;;;3.65;2.08;;;;;;;15.20;58.05;94993.69;5036046;28;20145;-80
2024/04/07 04:25:25;;;;;;;4.22;2.35;;;;;;;15.18;57.05;95000.84;5033131;28;20620;-80
2024/04/07 04:27:51;;;;;;;6.05;2.42;;;;;;;15.10;57.33;94988.56;5055359;28;20419;-80
2024/04/07 04:30:16;;;;;;;4.38;2.30;;;;;;;15.02;58.40;95012.03;5039003;28;20032;-78
2024/04/07 04:32:42;;;;;;;4.82;2.15;;;;;;;14.99;58.12;95007.09;5018716;28;20475;-80
2024/04/07 04:35:07;;;;;;;3.72;2.20;;;;;;;14.98;59.01;94994.97;5052837;28;20081;-80
2024/04/07 04:37:33;;;;;;;2.78;2.15;;;;;;;15.04;58.16;95009.25;5067583;28;20043;-81
2024/04/07 04:39:58;;;;;;;4.93;2.05;;;;;;;15.07;58.78;94988.84;5038986;28;20033;-78
2024/04/07 04:42:25;;;;;;;3.35;1.95;;;;;;;15.11;58.81;95005.88;5053986;28;20509;-80
2024/04/07 04:44:50;;;;;;;4.50;2.03;;;;;;;15.17;59.05;95012.31;5018418;28;20057;-80
2024/04/07 04:47:16;;;;;;;4.38;2.45;;;;;;;15.13;58.86;95013.59;5042167;28;20043;-81
2024/04/07 04:49:41;;;;;;;3.13;2.13;;;;;;;15.13;59.42;95008.38;5055709;28;20342;-80
2024/04/07 04:52:06;;;;;;;4.63;2.15;;;;;;;15.26;58.42;95014.00;5049393;28;20016;-80
2024/04/07 04:54:32;;;;;;;5.38;2.55;;;;;;;15.01;57.67;94978.16;5055621;28;20417;-80
2024/04/07 04:56:57;;;;;;;5.38;2.33;;;;;;;15.17;59.19;95015.75;5065450;28;20501;-80
2024/04/07 04:59:23;;;;;;;4.00;2.25;;;;;;;15.18;59.81;94996.47;5060129;28;20069;-82
2024/04/07 05:01:48;;;;;;;3.85;2.60;;;;;;;15.27;57.66;95007.81;5063685;28;20036;-81
2024/04/07 05:04:14;;;;;;;5.00;2.45;;;;;;;15.40;57.26;95005.63;5021583;28;20021;-81
2024/04/07 05:06:40;;;;;;;7.15;2.35;;;;;;;15.49;58.50;95003.06;5060368;28;20049;-81
2024/04/07 05:09:05;;;;;;;4.18;2.30;;;;;;;15.57;59.31;95000.50;5052080;28;20028;-82
2024/04/07 05:11:31;;;;;;;4.35;2.00;;;;;;;15.64;58.98;95001.56;5034426;28;20654;-79
2024/04/07 05:13:56;;;;;;;4.68;2.60;;;;;;;15.65;59.48;95004.00;5032363;28;20045;-79
2024/04/07 05:16:22;;;;;;;4.68;2.40;;;;;;;15.82;59.12;94998.91;5031028;28;20033;-79
2024/04/07 05:18:48;;;;;;;6.28;2.33;;;;;;;15.90;57.86;94995.50;5037564;28;20110;-79
2024/04/07 05:21:14;;;;;;;4.15;2.30;;;;;;;16.00;58.66;94999.69;5055878;28;20028;-82
2024/04/07 05:23:40;;;;;;;5.68;2.83;;;;;;;16.15;58.52;94999.91;5035797;28;20494;-80
2024/04/07 05:26:17;;;;;;;3.95;2.35;;;;;;;16.34;58.52;95001.47;5023997;28;20037;-80
2024/04/07 05:28:42;;;;;;;3.97;2.25;;;;;;;16.35;56.62;95008.34;5032601;28;20112;-80
2024/04/07 05:31:13;;;;;;;7.03;2.53;;;;;;;16.50;54.45;95006.78;5058783;28;20541;-80
2024/04/07 05:33:57;;;;;;;9.32;2.80;;;;;;;16.63;52.79;95008.13;5051116;28;20541;-78
2024/04/07 05:36:22;;;;;;;7.88;4.82;;;;;;;16.65;53.27;95000.91;5042597;28;20464;-80
2024/04/07 05:38:49;;;;;;;4.32;2.70;;;;;;;16.69;55.25;95000.44;5069100;28;20024;-80
2024/04/07 05:41:14;;;;;;;4.28;2.20;;;;;;;16.84;55.28;95011.16;5041027;28;20037;-81
2024/04/07 05:43:40;;;;;;;4.88;2.90;;;;;;;16.85;54.48;95001.47;5049703;28;20040;-79
2024/04/07 05:46:07;;;;;;;3.72;2.53;;;;;;;16.98;55.58;94999.22;5036902;28;20125;-80
2024/04/07 05:48:32;;;;;;;3.33;2.20;;;;;;;17.13;55.36;95000.25;5025354;28;20032;-81
2024/04/07 05:50:58;;;;;;;5.57;2.70;;;;;;;17.15;53.83;95000.88;5029982;28;20025;-80
2024/04/07 05:53:23;;;;;;;4.55;2.60;;;;;;;17.03;55.14;94983.00;5037896;28;20417;-80
2024/04/07 05:55:49;;;;;;;3.67;2.40;;;;;;;17.33;55.27;94997.28;5069849;28;20422;-81
2024/04/07 05:58:15;;;;;;;5.20;2.30;;;;;;;17.58;50.26;95006.00;5042026;28;20410;-81
2024/04/07 06:00:41;;;;;;;3.58;2.03;;;;;;;17.83;50.11;95010.25;5071780;28;20028;-81
2024/04/07 06:03:06;;;;;;;6.45;3.00;;;;;;;17.66;49.13;94998.06;5047305;28;20040;-80
2024/04/07 06:05:34;;;;;;;4.40;2.97;;;;;;;17.50;49.54;95008.63;5066658;28;20064;-80
2024/04/07 06:08:00;;;;;;;3.40;2.50;;;;;;;17.74;48.94;95013.00;5071870;28;20041;-80
2024/04/07 06:10:25;;;;;;;5.75;2.17;;;;;;;18.38;46.98;95015.69;5061843;28;20097;-80
2024/04/07 06:12:51;;;;;;;5.07;2.20;;;;;;;18.55;46.02;95012.00;5037090;28;20028;-80
2024/04/07 06:15:18;;;;;;;2.55;1.83;;;;;;;19.01;43.95;95016.56;5071607;28;20458;-78
2024/04/07 06:17:47;;;;;;;5.40;2.35;;;;;;;18.82;43.90;95002.84;5071652;28;20040;-80
2024/04/07 06:20:12;;;;;;;3.05;1.88;;;;;;;18.72;43.68;95018.00;5031244;28;20128;-80
2024/04/07 06:22:37;;;;;;;2.65;1.58;;;;;;;18.73;42.99;95009.13;5054484;28;20042;-80
2024/04/07 06:25:04;;;;;;;2.47;1.33;;;;;;;19.38;41.49;95008.72;5052075;28;20040;-80
2024/04/07 06:27:30;;;;;;;4.13;1.40;;;;;;;19.73;41.47;95005.69;5064548;28;20048;-79
2024/04/07 06:29:58;;;;;;;6.18;1.60;;;;;;;19.81;40.87;95005.63;5028290;28;20041;-80
2024/04/07 06:32:27;;;;;;;3.33;1.20;;;;;;;19.52;40.70;94999.25;5067942;28;20400;-80
2024/04/07 06:34:53;;;;;;;4.85;1.27;;;;;;;19.31;41.08;95009.63;5051940;28;20025;-80
2024/04/07 06:37:18;;;;;;;3.28;1.50;;;;;;;19.77;40.68;95013.03;5053524;28;20037;-80
2024/04/07 06:39:44;;;;;;;2.20;1.30;;;;;;;19.43;40.69;95016.13;5070104;28;20491;-81
2024/04/07 06:42:09;;;;;;;3.53;1.40;;;;;;;20.13;40.04;95022.09;5044703;28;20483;-80
2024/04/07 06:44:35;;;;;;;2.78;1.20;;;;;;;20.40;39.07;95016.19;5044175;28;20521;-80
2024/04/07 06:47:03;;;;;;;2.90;1.20;;;;;;;19.99;39.06;95026.38;5041197;28;20028;-80
2024/04/07 06:49:29;;;;;;;2.42;1.33;;;;;;;19.40;40.27;95027.00;5070003;28;20040;-80
2024/04/07 06:51:54;;;;;;;1.98;1.05;;;;;;;19.28;40.09;95023.13;5046091;28;20505;-80
2024/04/07 06:54:20;;;;;;;2.40;1.30;;;;;;;19.05;40.99;95036.28;5034383;28;20032;-80
2024/04/07 06:56:45;;;;;;;3.20;1.13;;;;;;;19.64;40.43;95032.09;5067593;28;20033;-80
2024/04/07 06:59:10;;;;;;;2.67;1.08;;;;;;;19.94;39.72;95037.44;5064557;28;20032;-80
2024/04/07 07:01:36;;;;;;;2.58;1.13;;;;;;;19.78;39.30;95032.31;5069659;28;20024;-80
2024/04/07 07:04:04;;;;;;;3.97;1.20;;;;;;;19.49;40.07;95036.47;5066207;28;20470;-80
2024/04/07 07:06:31;;;;;;;3.15;1.45;;;;;;;19.81;40.07;95039.88;5041514;28;20032;-81
2024/04/07 07:08:56;;;;;;;5.45;1.40;;;;;;;19.77;39.72;95028.06;5026023;28;20144;-81
2024/04/07 07:11:22;;;;;;;4.05;1.30;;;;;;;19.62;39.70;95049.06;5030640;28;20502;-80
2024/04/07 07:13:51;;;;;;;3.88;1.25;;;;;;;19.76;39.67;95040.41;5029170;28;20028;-80
2024/04/07 07:16:17;;;;;;;5.15;1.20;;;;;;;20.22;38.65;95052.66;5034010;28;20028;-80
2024/04/07 07:18:42;;;;;;;2.30;1.30;;;;;;;20.14;39.53;95050.91;5061675;28;20406;-79
2024/04/07 07:21:08;;;;;;;1.70;0.95;;;;;;;19.64;39.22;95033.91;5059345;28;20021;-79
2024/04/07 07:23:35;;;;;;;2.85;1.13;;;;;;;19.96;39.17;95058.38;5031461;28;20044;-76
2024/04/07 07:26:02;;;;;;;4.90;1.30;;;;;;;20.03;39.32;95054.84;5016814;28;20466;-76
2024/04/07 07:28:30;;;;;;;4.65;1.45;;;;;;;19.93;40.00;95054.25;5025782;28;20052;-73
2024/04/07 07:30:56;;;;;;;3.15;1.33;;;;;;;19.74;40.22;95060.84;5036784;28;20405;-79
2024/04/07 07:33:22;;;;;;;5.60;1.20;;;;;;;19.68;39.88;95056.28;5036612;28;20033;-80
2024/04/07 07:35:49;;;;;;;2.90;1.15;;;;;;;19.51;40.79;95055.56;5061334;28;20043;-80
2024/04/07 07:38:15;;;;;;;3.40;1.30;;;;;;;19.54;40.06;95063.13;5059209;28;20017;-79
2024/04/07 07:40:40;;;;;;;2.05;1.13;;;;;;;19.60;40.43;95059.78;5023473;28;20395;-79
2024/04/07 07:43:06;;;;;;;4.35;1.60;;;;;;;19.78;39.80;95056.88;5028164;28;20108;-79
2024/04/07 07:45:31;;;;;;;2.78;1.00;;;;;;;19.74;39.33;95054.75;5027151;28;20033;-78
2024/04/07 07:47:56;;;;;;;4.32;1.38;;;;;;;19.80;39.17;95057.50;5071357;28;20024;-76
2024/04/07 07:50:22;;;;;;;2.47;1.27;;;;;;;19.68;39.26;95055.47;5015885;28;20037;-77
2024/04/07 07:52:48;;;;;;;4.38;1.70;;;;;;;19.76;39.85;95058.06;5052772;28;20490;-77
2024/04/07 07:55:13;;;;;;;5.47;1.70;;;;;;;19.23;40.58;95051.81;5026843;28;20498;-76
2024/04/07 07:57:39;;;;;;;2.20;1.20;;;;;;;19.53;40.70;95045.69;5042165;28;20021;-74
2024/04/07 08:00:05;;;;;;;3.30;1.70;;;;;;;19.56;41.02;95047.16;5031387;28;20410;-75
2024/04/07 08:02:31;;;;;;;3.47;1.30;;;;;;;19.47;40.68;95058.72;5033053;28;20102;-76
2024/04/07 08:04:57;;;;;;;3.13;1.95;;;;;;;19.52;40.20;95056.38;5012984;28;20029;-77
2024/04/07 08:07:23;;;;;;;4.75;2.25;;;;;;;19.50;40.77;95053.94;5018660;28;20468;-76
2024/04/07 08:09:48;;;;;;;4.68;1.23;;;;;;;19.52;40.44;95062.47;5053202;28;20041;-76
2024/04/07 08:12:14;;;;;;;2.20;1.38;;;;;;;19.26;40.94;95056.75;5043963;28;20025;-76
2024/04/07 08:14:40;;;;;;;4.88;2.58;;;;;;;19.14;41.14;95053.69;5041261;28;20029;-75
2024/04/07 08:17:05;;;;;;;3.88;1.77;;;;;;;19.10;41.34;95053.19;5036225;28;20078;-78
2024/04/07 08:19:31;;;;;;;4.35;2.90;;;;;;;19.01;41.93;95051.63;5038230;28;20040;-75
2024/04/07 08:21:56;;;;;;;3.92;1.75;;;;;;;19.21;41.67;95059.88;5042526;28;20020;-76
2024/04/07 08:24:22;;;;;;;5.40;1.40;;;;;;;19.12;41.85;95061.75;5059881;28;20107;-76
2024/04/07 08:26:47;;;;;;;1.90;1.00;;;;;;;19.15;41.52;95066.66;5037586;28;20486;-78
2024/04/07 08:29:12;;;;;;;3.25;1.20;;;;;;;18.80;42.01;95048.75;5028117;28;20048;-79
2024/04/07 08:31:38;;;;;;;2.60;1.20;;;;;;;18.68;41.92;95070.16;5055239;28;20035;-76
2024/04/07 08:34:03;;;;;;;2.50;1.00;;;;;;;18.52;41.52;95034.19;5063214;28;20037;-78
2024/04/07 08:36:29;;;;;;;2.58;1.13;;;;;;;18.74;41.45;95066.88;5049813;28;20028;-78
2024/04/07 08:38:54;;;;;;;2.17;0.98;;;;;;;18.76;41.45;95069.34;5061858;28;20307;-77
2024/04/07 08:41:20;;;;;;;4.18;1.00;;;;;;;18.93;41.85;95072.72;5063696;28;20032;-76
2024/04/07 08:43:48;;;;;;;3.45;1.10;;;;;;;18.70;42.08;95052.38;5018887;28;20028;-74
2024/04/07 08:46:14;;;;;;;3.55;1.30;;;;;;;18.64;42.34;95074.13;5062195;28;20035;-73
2024/04/07 08:48:40;;;;;;;3.03;1.27;;;;;;;18.67;42.04;95067.72;5046409;28;20025;-72
2024/04/07 08:51:09;;;;;;;1.98;0.90;;;;;;;18.81;42.03;95074.09;5019491;28;20025;-74
2024/04/07 08:53:36;;;;;;;2.03;1.10;;;;;;;18.79;42.30;95073.44;5017934;28;20035;-75
2024/04/07 08:56:01;;;;;;;3.10;1.20;;;;;;;18.77;42.06;95078.03;5051166;28;20036;-74
2024/04/07 08:58:27;;;;;;;2.25;1.40;;;;;;;18.58;42.55;95077.41;5039086;28;20038;-72
2024/04/07 09:00:52;;;;;;;3.00;1.40;;;;;;;18.05;43.12;95065.72;5034304;28;20490;-76
2024/04/07 09:03:18;;;;;;;3.58;0.90;;;;;;;18.13;43.04;95044.66;5039357;28;20033;-78
2024/04/07 09:05:43;;;;;;;4.07;1.40;;;;;;;18.50;43.25;95066.94;5017454;28;20025;-76
2024/04/07 09:08:09;;;;;;;2.17;1.17;;;;;;;18.66;42.33;95061.59;5041472;28;20028;-76
2024/04/07 09:10:34;;;;;;;1.85;1.10;;;;;;;18.57;41.79;95052.09;5035494;28;20112;-76
2024/04/07 09:13:00;;;;;;;3.03;1.13;;;;;;;18.62;42.09;95044.53;5046611;28;20029;-76
2024/04/07 09:15:25;;;;;;;2.60;1.10;;;;;;;18.87;41.79;95068.13;5043750;28;20082;-76
2024/04/07 09:17:51;;;;;;;2.65;0.98;;;;;;;18.83;40.51;95067.63;5021754;28;20106;-76
2024/04/07 09:20:19;;;;;;;2.10;1.25;;;;;;;18.73;40.44;95067.03;5002852;28;20136;-76
2024/04/07 09:22:48;;;;;;;3.65;1.27;;;;;;;18.66;39.80;95073.94;5049741;28;20033;-76
2024/04/07 09:25:14;;;;;;;4.05;1.33;;;;;;;18.64;39.63;95074.13;5044672;28;20035;-76
2024/04/07 09:27:40;;;;;;;2.22;1.00;;;;;;;18.35;40.27;95069.44;5044566;28;20041;-76
2024/04/07 09:30:07;;;;;;;3.70;1.30;;;;;;;18.27;40.83;95070.28;5015660;28;20037;-76
2024/04/07 09:32:32;;;;;;;1.73;0.90;;;;;;;18.37;40.01;95083.25;5020299;28;20490;-76
2024/04/07 09:34:58;;;;;;;2.10;1.00;;;;;;;18.49;39.55;95089.78;5026949;28;20037;-76
2024/04/07 09:37:23;;;;;;;2.08;0.90;;;;;;;18.49;39.73;95088.97;5009482;28;20024;-77
2024/04/07 09:39:49;;;;;;;4.18;1.00;;;;;;;18.41;39.49;95094.25;5041370;28;20063;-76
2024/04/07 09:42:21;;;;;;;4.32;1.00;;;;;;;18.33;39.86;95074.06;5052024;28;20024;-74
2024/04/07 09:44:47;;;;;;;4.38;1.10;;;;;;;18.47;39.61;95098.81;5050045;28;20036;-74
2024/04/07 09:47:14;;;;;;;3.22;0.90;;;;;;;18.35;39.71;95095.72;5032394;28;20017;-72
2024/04/07 09:49:40;;;;;;;7.43;1.35;;;;;;;18.40;39.35;95096.06;5035209;28;20108;-73
2024/04/07 09:52:07;;;;;;;3.42;1.55;;;;;;;18.64;38.75;95094.34;5030156;28;20091;-73
2024/04/07 09:54:46;;;;;;;3.15;1.00;;;;;;;18.41;39.78;95099.50;5018687;28;20061;-72
2024/04/07 09:57:13;;;;;;;4.63;1.40;;;;;;;18.20;40.63;95100.88;5038799;28;20028;-73
2024/04/07 09:59:39;;;;;;;3.80;1.30;;;;;;;18.33;41.14;95099.50;5021627;28;20045;-74
2024/04/07 10:02:05;;;;;;;2.58;1.17;;;;;;;18.30;41.14;95085.75;5036368;28;20438;-71
2024/04/07 10:04:34;;;;;;;2.25;1.33;;;;;;;18.43;41.52;95093.09;5033480;28;20677;-73
2024/04/07 10:07:00;;;;;;;2.50;1.30;;;;;;;18.53;41.23;95095.53;5054833;28;20028;-72
2024/04/07 10:09:26;;;;;;;2.00;1.20;;;;;;;18.77;40.45;95093.84;5020242;28;20028;-72
2024/04/07 10:11:52;;;;;;;2.58;1.00;;;;;;;18.74;39.78;95100.25;5020494;28;20043;-72
2024/04/07 10:14:17;;;;;;;2.58;1.30;;;;;;;18.65;40.07;95107.31;5017158;28;20471;-72
2024/04/07 10:16:44;;;;;;;6.60;1.60;;;;;;;18.57;40.59;95107.34;5029074;28;20059;-72
2024/04/07 10:19:09;;;;;;;3.17;1.55;;;;;;;18.57;40.28;95102.09;5017564;28;20093;-72
2024/04/07 10:21:34;;;;;;;6.03;1.40;;;;;;;18.23;40.60;95111.03;5035831;28;20037;-70
2024/04/07 10:24:00;;;;;;;1.98;1.20;;;;;;;18.08;42.11;95116.16;5026457;28;20560;-71
2024/04/07 10:26:26;;;;;;;3.17;1.30;;;;;;;17.95;41.73;95115.03;5061131;28;20499;-72
2024/04/07 10:28:58;;;;;;;3.65;1.70;;;;;;;18.04;41.96;95103.50;5009553;28;20055;-71
2024/04/07 10:31:33;;;;;;;3.40;1.38;;;;;;;18.28;42.31;95127.16;5043409;28;20132;-71
2024/04/07 10:33:59;;;;;;;2.90;1.42;;;;;;;18.38;41.30;95110.34;5036493;28;20543;-71
2024/04/07 10:36:25;;;;;;;2.92;1.30;;;;;;;18.62;41.45;95120.00;5019579;28;20111;-72
2024/04/07 10:38:52;;;;;;;2.33;1.15;;;;;;;18.48;40.90;95108.38;5041632;28;20041;-72
2024/04/07 10:41:27;;;;;;;5.82;1.40;;;;;;;18.45;41.61;95130.56;5028949;28;20028;-71
2024/04/07 10:43:52;;;;;;;1.90;1.20;;;;;;;18.51;42.22;95131.69;5028412;28;20067;-71
2024/04/07 10:46:19;;;;;;;4.40;1.40;;;;;;;18.54;43.33;95145.34;5060339;28;20452;-71
2024/04/07 10:48:45;;;;;;;4.20;1.35;;;;;;;18.60;44.15;95141.22;5042429;28;20039;-71
2024/04/07 10:51:12;;;;;;;5.10;1.38;;;;;;;18.74;44.59;95151.06;5035096;28;20020;-72
2024/04/07 10:53:39;;;;;;;4.32;1.33;;;;;;;18.86;44.59;95151.53;5042186;28;20013;-70
2024/04/07 10:56:04;;;;;;;6.68;1.73;;;;;;;18.54;44.79;95141.88;5033241;28;20071;-70
2024/04/07 10:58:30;;;;;;;3.10;1.50;;;;;;;18.80;44.52;95146.13;5061380;28;20029;-70
2024/04/07 11:00:55;;;;;;;2.85;1.20;;;;;;;18.70;43.66;95147.13;5042496;28;20044;-71
2024/04/07 11:03:21;;;;;;;2.83;1.00;;;;;;;18.45;43.82;95142.91;5041930;28;20462;-70
2024/04/07 11:05:47;;;;;;;3.28;1.50;;;;;;;18.25;43.97;95101.19;5025810;28;20498;-72
2024/04/07 11:08:12;;;;;;;2.88;1.50;;;;;;;18.46;43.54;95149.78;5060310;28;20029;-71
2024/04/07 11:10:38;;;;;;;2.20;1.48;;;;;;;18.17;43.90;95150.34;5042327;28;20033;-71
2024/04/07 11:13:06;;;;;;;15.02;6.55;;;;;;;18.54;43.69;95158.50;5015939;28;20025;-72
2024/04/07 11:15:31;;;;;;;3.58;2.20;;;;;;;18.27;43.83;95149.16;5037501;28;20041;-72
2024/04/07 11:17:58;;;;;;;2.10;1.30;;;;;;;18.46;42.73;95160.31;5021503;28;20086;-72
2024/04/07 11:20:23;;;;;;;2.03;1.20;;;;;;;18.38;43.10;95162.94;5041325;28;20031;-73
2024/04/07 11:22:49;;;;;;;3.55;1.17;;;;;;;18.23;43.55;95152.28;5043032;28;20020;-72
2024/04/07 11:25:14;;;;;;;4.57;1.48;;;;;;;18.25;44.17;95181.88;5042928;28;20029;-73
2024/04/07 11:27:40;;;;;;;3.80;1.20;;;;;;;18.25;44.88;95174.81;5059004;28;20461;-73
2024/04/07 11:30:07;;;;;;;2.90;1.20;;;;;;;18.11;45.54;95185.16;5061868;28;20051;-73
2024/04/07 11:32:32;;;;;;;5.18;1.15;;;;;;;17.65;46.47;95173.25;5041078;28;20055;-74